Terminal Aerodrome Forecast
Issued by NWS

Home | Current Version | Previous Version | Text Only | Print | Product List | Glossary On
Versions: 1 2 3 4 5 6 7 8 9 10 11 12 13 14 15 16 17 18 19 20 21
000
FTUS42 KMLB 282000 AAA
TAFFPR
TAF AMD
KFPR 282015Z 2820/2918 12008KT P6SM SCT040
     FM290000 17003KT P6SM FEW030 BKN250
     FM290800 00000KT 5SM BR FEW010 BKN040
      TEMPO 2908/2912 2SM BR BKN008
     FM291400 22005KT P6SM OVC015=

USA.gov is the U.S. government's official web portal to all federal, state and local government web resources and services.